Aleksandr Zhitnik — EMBN — position and weather

sailwx.info

Track history (hours):
 
Tides and Currents Weather Stations Pressure Air Temp Water Temp Dewpoint Dewpoint Depression Visibility Wind Speed Wind Dir Waves Ship Positions

Aleksandr Zhitnik

Last reported at 2016-Aug-23 03:33 UTC. Time now 2016-Aug-28 02:20 UTC.
Position N 46°33' E 032°13'.

Length 85 m; draft 1.6 m.

MMSI: 272089600.

Date/timePositionNaut miles runAvg speedWind from/ knotsBaromVisibWave heightAir tempDewpointWater temp
2016-Aug-23 03:33N 46°33' E 032°13'0 0.0
2016-Aug-23 02:33N 46°33' E 032°13'0 0.0
2016-Aug-23 01:33N 46°33' E 032°13'0 0.0
2016-Aug-23 00:33N 46°33' E 032°13'0 0.0
2016-Aug-22 23:33N 46°33' E 032°13'0 0.0
2016-Aug-22 22:33N 46°33' E 032°13'0 0.0
2016-Aug-22 21:33N 46°33' E 032°13'0 0.0
2016-Aug-22 20:30N 46°33' E 032°13'4 4.1
2016-Aug-22 19:33N 46°32' E 032°07'5 4.9
2016-Aug-22 18:33N 46°33' E 032°00'5 5.3
2016-Aug-22 17:33N 46°34' E 031°53'4 4.3
2016-Aug-22 16:33N 46°35' E 031°47'4 4.5
2016-Aug-22 15:33N 46°35' E 031°41'18 4.3
2016-Aug-22 11:28N 46°35' E 031°15'4 4.3
2016-Aug-22 10:34N 46°35' E 031°09'4 4.4
2016-Aug-22 09:33N 46°34' E 031°03'4 4.5
2016-Aug-22 08:33N 46°33' E 030°57'4 4.3
2016-Aug-22 07:34N 46°31' E 030°51'4 4.3
2016-Aug-22 06:33N 46°31' E 030°45'1 0.5
2016-Aug-22 05:33N 46°31' E 030°44'0 0.0
2016-Aug-22 04:33N 46°31' E 030°44'0 0.0
2016-Aug-22 03:33N 46°31' E 030°44'0 0.0
2016-Aug-22 02:33N 46°31' E 030°44'0 0.0
2016-Aug-22 01:33N 46°31' E 030°44'0 0.0
2016-Aug-22 00:33N 46°31' E 030°44'0 0.0
2016-Aug-21 23:33N 46°31' E 030°44'0 0.0
2016-Aug-21 22:33N 46°31' E 030°44'0 0.0
2016-Aug-21 21:33N 46°31' E 030°44'0 0.0
2016-Aug-21 20:33N 46°31' E 030°44'0 0.0
2016-Aug-21 19:33N 46°31' E 030°44'0 0.0
2016-Aug-21 18:33N 46°31' E 030°44'0 0.0
2016-Aug-21 17:33N 46°31' E 030°44'0 0.0
2016-Aug-21 16:33N 46°31' E 030°44'0 0.0
2016-Aug-21 15:33N 46°31' E 030°44'0 0.0
2016-Aug-21 14:33N 46°31' E 030°44'0 0.0
2016-Aug-21 13:32N 46°31' E 030°44'0 0.0
2016-Aug-21 12:33N 46°31' E 030°44'0 0.0
2016-Aug-21 11:33N 46°31' E 030°44'0 0.0
2016-Aug-21 10:33N 46°31' E 030°44'0 0.0
2016-Aug-21 09:33N 46°31' E 030°44'0 0.0
2016-Aug-21 08:33N 46°31' E 030°44'0 0.0
2016-Aug-21 07:33N 46°31' E 030°44'0 0.0
2016-Aug-21 06:33N 46°31' E 030°44'0 0.0
2016-Aug-21 05:34N 46°31' E 030°44'0 0.0
2016-Aug-21 04:33N 46°31' E 030°44'0 0.0
2016-Aug-21 03:33N 46°31' E 030°44'0 0.0
2016-Aug-21 02:33N 46°31' E 030°44'0 0.0
2016-Aug-21 01:33N 46°31' E 030°44'0 0.0
2016-Aug-21 00:33N 46°31' E 030°44'0 0.0
2016-Aug-20 23:33N 46°31' E 030°44'0 0.0
2016-Aug-20 22:33N 46°31' E 030°44'0 0.0
2016-Aug-20 21:33N 46°31' E 030°44'0 0.0
2016-Aug-20 20:33N 46°31' E 030°44'0 0.0
2016-Aug-20 19:33N 46°31' E 030°44'0 0.0
2016-Aug-20 18:30N 46°31' E 030°44'0 0.0
2016-Aug-20 17:33N 46°31' E 030°44'0 0.0
2016-Aug-20 16:33N 46°31' E 030°44'0 0.0
2016-Aug-20 15:33N 46°31' E 030°44'0 0.0
2016-Aug-20 14:33N 46°31' E 030°44'0 0.0
2016-Aug-20 13:31N 46°31' E 030°44'0 0.0
2016-Aug-20 12:33N 46°31' E 030°44'0 0.0
2016-Aug-20 11:33N 46°31' E 030°44'0 0.0
2016-Aug-20 10:33N 46°31' E 030°44'0 0.0
2016-Aug-20 09:33N 46°31' E 030°44'0 0.0
2016-Aug-20 08:33N 46°31' E 030°44'0 0.0
2016-Aug-20 07:33N 46°31' E 030°44'0 0.0
2016-Aug-20 06:33N 46°31' E 030°44'0 0.0
2016-Aug-20 05:33N 46°31' E 030°44'0 0.0
2016-Aug-20 04:34N 46°31' E 030°44'0 0.0
2016-Aug-20 03:33N 46°31' E 030°44'0 0.0
2016-Aug-20 02:33N 46°31' E 030°44'0 0.0
2016-Aug-20 01:33N 46°31' E 030°44'0 0.0
2016-Aug-20 00:33N 46°31' E 030°44'0 0.0
2016-Aug-19 23:34N 46°31' E 030°44'0 0.0
2016-Aug-19 22:33N 46°31' E 030°44'0 0.0
2016-Aug-19 21:33N 46°31' E 030°44'0 0.0
2016-Aug-19 20:33N 46°31' E 030°44'0 0.0
2016-Aug-19 19:33N 46°31' E 030°44'0 0.0
2016-Aug-19 18:33N 46°31' E 030°44'0 0.0
2016-Aug-19 17:33N 46°31' E 030°44'0 0.0
2016-Aug-19 16:33N 46°31' E 030°44'0 0.0
2016-Aug-19 15:33N 46°31' E 030°44'3 2.7
2016-Aug-19 14:33N 46°30' E 030°48'6 5.7
2016-Aug-19 13:33N 46°32' E 030°56'6 5.4
2016-Aug-19 12:30N 46°34' E 031°03'5 5.1
2016-Aug-19 11:32N 46°35' E 031°11'24 4.8
2016-Aug-19 06:32N 46°35' E 031°46'4 4.5
2016-Aug-19 05:33N 46°35' E 031°52'5 4.7
2016-Aug-19 04:34N 46°33' E 031°58'4 4.2
2016-Aug-19 03:33N 46°32' E 032°04'2 2.2
2016-Aug-19 02:33N 46°30' E 032°05'0 0.0
2016-Aug-19 01:31N 46°30' E 032°05'0 0.0
2016-Aug-18 23:33N 46°30' E 032°05'0 0.2
2016-Aug-18 22:32N 46°30' E 032°05'0 0.0
2016-Aug-18 21:29N 46°30' E 032°05'0 0.0
2016-Aug-18 20:34N 46°30' E 032°05'0 0.0
2016-Aug-18 19:33N 46°30' E 032°05'0 0.0
2016-Aug-18 18:33N 46°30' E 032°05'0 0.0
2016-Aug-18 17:32N 46°30' E 032°05'0 0.0
2016-Aug-18 16:33N 46°30' E 032°05'0 0.0
2016-Aug-18 15:33N 46°30' E 032°05'3 3.1
2016-Aug-18 14:31N 46°32' E 032°02'5 5.2
2016-Aug-18 13:33N 46°34' E 031°55'6 5.3
2016-Aug-18 12:28N 46°35' E 031°47'24 4.8
2016-Aug-18 07:25N 46°35' E 031°12'5 5.4
2016-Aug-18 06:30N 46°35' E 031°05'5 5.5
2016-Aug-18 05:33N 46°33' E 030°57'5 5.0
2016-Aug-18 04:33N 46°31' E 030°51'4 4.1
2016-Aug-18 03:33N 46°31' E 030°45'0 0.3
2016-Aug-18 02:34N 46°31' E 030°44'0 0.0
2016-Aug-18 01:34N 46°31' E 030°44'0 0.0
2016-Aug-18 00:34N 46°31' E 030°44'0 0.0
2016-Aug-17 23:33N 46°31' E 030°44'0 0.0
2016-Aug-17 22:33N 46°31' E 030°44'0 0.0
2016-Aug-17 21:33N 46°31' E 030°44'0 0.0
2016-Aug-17 20:33N 46°31' E 030°44'0 0.0
2016-Aug-17 19:33N 46°31' E 030°44'0 0.0
2016-Aug-17 18:33N 46°31' E 030°44'0 0.0
2016-Aug-17 17:33N 46°31' E 030°44'0 0.0
2016-Aug-17 16:33N 46°31' E 030°44'0 0.0
2016-Aug-17 15:33N 46°31' E 030°44'0 0.0
2016-Aug-17 14:33N 46°31' E 030°44'0 0.0
2016-Aug-17 13:33N 46°31' E 030°44'0 0.0
2016-Aug-17 12:34N 46°31' E 030°44'0 0.0
2016-Aug-17 11:34N 46°31' E 030°44'0 0.0
2016-Aug-17 10:33N 46°31' E 030°44'0 0.0
2016-Aug-17 09:33N 46°31' E 030°44'0 0.0
2016-Aug-17 08:33N 46°31' E 030°44'0 0.0
2016-Aug-17 07:33N 46°31' E 030°44'0 0.0
2016-Aug-17 06:33N 46°31' E 030°44'0 0.0
2016-Aug-17 05:34N 46°31' E 030°44'0 0.0
2016-Aug-17 04:34N 46°31' E 030°44'0 0.0
2016-Aug-17 03:33N 46°31' E 030°44'0 0.0
2016-Aug-17 02:33N 46°31' E 030°44'0 0.0
2016-Aug-17 01:32N 46°31' E 030°44'0 0.0
2016-Aug-17 00:33N 46°31' E 030°44'0 0.0
2016-Aug-16 23:33N 46°31' E 030°44'0 0.0
2016-Aug-16 22:32N 46°31' E 030°44'0 0.0
2016-Aug-16 21:33N 46°31' E 030°44'0 0.0
2016-Aug-16 20:33N 46°31' E 030°44'0 0.0
2016-Aug-16 19:33N 46°31' E 030°44'0 0.0
2016-Aug-16 18:33N 46°31' E 030°44'0 0.0
2016-Aug-16 17:33N 46°31' E 030°44'0 0.0
2016-Aug-16 16:33N 46°31' E 030°44'0 0.0
2016-Aug-16 15:33N 46°31' E 030°44'3 3.2
2016-Aug-16 14:33N 46°31' E 030°49'46 4.6
2016-Aug-16 04:34N 46°34' E 031°56'5 4.6
2016-Aug-16 03:34N 46°32' E 032°02'3 3.3
2016-Aug-16 02:33N 46°30' E 032°05'0 0.0
2016-Aug-16 01:34N 46°30' E 032°05'0 0.0
2016-Aug-16 00:33N 46°29' E 032°05'0 0.2
2016-Aug-15 23:32N 46°30' E 032°05'0 0.0
2016-Aug-15 21:30N 46°30' E 032°05'0 0.0
2016-Aug-15 20:33N 46°30' E 032°05'0 0.0
2016-Aug-15 19:29N 46°30' E 032°05'0 0.0
2016-Aug-15 15:25N 46°30' E 032°05'4 4.1
2016-Aug-15 14:33N 46°32' E 032°01'5 5.0
2016-Aug-15 13:33N 46°34' E 031°55'5 5.1
2016-Aug-15 12:32N 46°36' E 031°47'26 4.8
2016-Aug-15 07:05N 46°35' E 031°09'4 5.9
2016-Aug-15 06:26N 46°34' E 031°03'10 5.3
2016-Aug-15 04:33N 46°31' E 030°50'4 3.9
2016-Aug-15 03:33N 46°31' E 030°44'0 0.0
2016-Aug-15 02:33N 46°31' E 030°44'0 0.0
2016-Aug-15 01:33N 46°31' E 030°44'0 0.0
2016-Aug-15 00:33N 46°31' E 030°44'0 0.0
2016-Aug-14 23:33N 46°31' E 030°44'0 0.0
2016-Aug-14 22:33N 46°31' E 030°44'0 0.0
2016-Aug-14 21:33N 46°31' E 030°44'0 0.0
2016-Aug-14 20:33N 46°31' E 030°44'0 0.0
2016-Aug-14 19:33N 46°31' E 030°44'0 0.0
2016-Aug-14 18:33N 46°31' E 030°44'0 0.0
2016-Aug-14 17:33N 46°31' E 030°44'0 0.0
2016-Aug-14 16:34N 46°31' E 030°44'0 0.0
2016-Aug-14 15:33N 46°31' E 030°44'0 0.0
2016-Aug-14 14:33N 46°31' E 030°44'0 0.0
2016-Aug-14 13:33N 46°31' E 030°44'0 0.0
2016-Aug-14 12:33N 46°31' E 030°44'0 0.0
2016-Aug-14 11:33N 46°31' E 030°44'0 0.0
2016-Aug-14 10:33N 46°31' E 030°44'0 0.0
2016-Aug-14 09:33N 46°31' E 030°44'0 0.0
2016-Aug-14 08:33N 46°31' E 030°44'0 0.0
2016-Aug-14 07:34N 46°31' E 030°44'0 0.0
2016-Aug-14 06:32N 46°31' E 030°44'0 0.0
2016-Aug-14 04:33N 46°31' E 030°44'0 0.0
2016-Aug-14 03:33N 46°31' E 030°44'0 0.0
2016-Aug-14 02:33N 46°31' E 030°44'0 0.0
2016-Aug-14 01:33N 46°31' E 030°44'0 0.0
2016-Aug-14 00:33N 46°31' E 030°44'0 0.0
2016-Aug-13 23:32N 46°31' E 030°44'0 0.0
2016-Aug-13 22:31N 46°31' E 030°44'0 0.0
2016-Aug-13 21:32N 46°31' E 030°44'0 0.0
2016-Aug-13 20:33N 46°31' E 030°44'0 0.0
2016-Aug-13 19:33N 46°31' E 030°44'0 0.0
2016-Aug-13 18:32N 46°31' E 030°44'0 0.0
2016-Aug-13 17:33N 46°31' E 030°44'0 0.0
2016-Aug-13 16:33N 46°31' E 030°44'0 0.0
2016-Aug-13 15:33N 46°31' E 030°44'0 0.0
2016-Aug-13 14:33N 46°31' E 030°44'0 0.0
2016-Aug-13 13:32N 46°31' E 030°44'0 0.0
2016-Aug-13 12:32N 46°31' E 030°44'0 0.0
2016-Aug-13 11:33N 46°31' E 030°44'0 0.0
2016-Aug-13 10:33N 46°31' E 030°44'0 0.0
2016-Aug-13 09:33N 46°31' E 030°44'0 0.0
2016-Aug-13 08:33N 46°31' E 030°44'0 0.0
2016-Aug-13 07:33N 46°31' E 030°44'0 0.0
2016-Aug-13 06:33N 46°31' E 030°44'0 0.0
2016-Aug-13 05:33N 46°31' E 030°44'0 0.0
2016-Aug-13 04:33N 46°31' E 030°44'0 0.0
2016-Aug-13 03:33N 46°31' E 030°44'  
Track history (hours):
 
Tides and Currents Weather Stations Pressure Air Temp Water Temp Dewpoint Dewpoint Depression Visibility Wind Speed Wind Dir Waves Ship Positions

Aleksandr Zhitnik

Last reported at 2016-Aug-23 03:33 UTC. Time now 2016-Aug-28 02:20 UTC.
Position N 46°33' E 032°13'.

Length 85 m; draft 1.6 m.

MMSI: 272089600.

Date/timePositionNaut miles runAvg speedWind from/ knotsBaromVisibWave heightAir tempDewpointWater temp
2016-Aug-23 03:33N 46°33' E 032°13'0 0.0
2016-Aug-23 02:33N 46°33' E 032°13'0 0.0
2016-Aug-23 01:33N 46°33' E 032°13'0 0.0
2016-Aug-23 00:33N 46°33' E 032°13'0 0.0
2016-Aug-22 23:33N 46°33' E 032°13'0 0.0
2016-Aug-22 22:33N 46°33' E 032°13'0 0.0
2016-Aug-22 21:33N 46°33' E 032°13'0 0.0
2016-Aug-22 20:30N 46°33' E 032°13'4 4.1
2016-Aug-22 19:33N 46°32' E 032°07'5 4.9
2016-Aug-22 18:33N 46°33' E 032°00'5 5.3
2016-Aug-22 17:33N 46°34' E 031°53'4 4.3
2016-Aug-22 16:33N 46°35' E 031°47'4 4.5
2016-Aug-22 15:33N 46°35' E 031°41'18 4.3
2016-Aug-22 11:28N 46°35' E 031°15'4 4.3
2016-Aug-22 10:34N 46°35' E 031°09'4 4.4
2016-Aug-22 09:33N 46°34' E 031°03'4 4.5
2016-Aug-22 08:33N 46°33' E 030°57'4 4.3
2016-Aug-22 07:34N 46°31' E 030°51'4 4.3
2016-Aug-22 06:33N 46°31' E 030°45'1 0.5
2016-Aug-22 05:33N 46°31' E 030°44'0 0.0
2016-Aug-22 04:33N 46°31' E 030°44'0 0.0
2016-Aug-22 03:33N 46°31' E 030°44'0 0.0
2016-Aug-22 02:33N 46°31' E 030°44'0 0.0
2016-Aug-22 01:33N 46°31' E 030°44'0 0.0
2016-Aug-22 00:33N 46°31' E 030°44'0 0.0
2016-Aug-21 23:33N 46°31' E 030°44'0 0.0
2016-Aug-21 22:33N 46°31' E 030°44'0 0.0
2016-Aug-21 21:33N 46°31' E 030°44'0 0.0
2016-Aug-21 20:33N 46°31' E 030°44'0 0.0
2016-Aug-21 19:33N 46°31' E 030°44'0 0.0
2016-Aug-21 18:33N 46°31' E 030°44'0 0.0
2016-Aug-21 17:33N 46°31' E 030°44'0 0.0
2016-Aug-21 16:33N 46°31' E 030°44'0 0.0
2016-Aug-21 15:33N 46°31' E 030°44'0 0.0
2016-Aug-21 14:33N 46°31' E 030°44'0 0.0
2016-Aug-21 13:32N 46°31' E 030°44'0 0.0
2016-Aug-21 12:33N 46°31' E 030°44'0 0.0
2016-Aug-21 11:33N 46°31' E 030°44'0 0.0
2016-Aug-21 10:33N 46°31' E 030°44'0 0.0
2016-Aug-21 09:33N 46°31' E 030°44'0 0.0
2016-Aug-21 08:33N 46°31' E 030°44'0 0.0
2016-Aug-21 07:33N 46°31' E 030°44'0 0.0
2016-Aug-21 06:33N 46°31' E 030°44'0 0.0
2016-Aug-21 05:34N 46°31' E 030°44'0 0.0
2016-Aug-21 04:33N 46°31' E 030°44'0 0.0
2016-Aug-21 03:33N 46°31' E 030°44'0 0.0
2016-Aug-21 02:33N 46°31' E 030°44'0 0.0
2016-Aug-21 01:33N 46°31' E 030°44'0 0.0
2016-Aug-21 00:33N 46°31' E 030°44'0 0.0
2016-Aug-20 23:33N 46°31' E 030°44'0 0.0
2016-Aug-20 22:33N 46°31' E 030°44'0 0.0
2016-Aug-20 21:33N 46°31' E 030°44'0 0.0
2016-Aug-20 20:33N 46°31' E 030°44'0 0.0
2016-Aug-20 19:33N 46°31' E 030°44'0 0.0
2016-Aug-20 18:30N 46°31' E 030°44'0 0.0
2016-Aug-20 17:33N 46°31' E 030°44'0 0.0
2016-Aug-20 16:33N 46°31' E 030°44'0 0.0
2016-Aug-20 15:33N 46°31' E 030°44'0 0.0
2016-Aug-20 14:33N 46°31' E 030°44'0 0.0
2016-Aug-20 13:31N 46°31' E 030°44'0 0.0
2016-Aug-20 12:33N 46°31' E 030°44'0 0.0
2016-Aug-20 11:33N 46°31' E 030°44'0 0.0
2016-Aug-20 10:33N 46°31' E 030°44'0 0.0
2016-Aug-20 09:33N 46°31' E 030°44'0 0.0
2016-Aug-20 08:33N 46°31' E 030°44'0 0.0
2016-Aug-20 07:33N 46°31' E 030°44'0 0.0
2016-Aug-20 06:33N 46°31' E 030°44'0 0.0
2016-Aug-20 05:33N 46°31' E 030°44'0 0.0
2016-Aug-20 04:34N 46°31' E 030°44'0 0.0
2016-Aug-20 03:33N 46°31' E 030°44'0 0.0
2016-Aug-20 02:33N 46°31' E 030°44'0 0.0
2016-Aug-20 01:33N 46°31' E 030°44'0 0.0
2016-Aug-20 00:33N 46°31' E 030°44'0 0.0
2016-Aug-19 23:34N 46°31' E 030°44'0 0.0
2016-Aug-19 22:33N 46°31' E 030°44'0 0.0
2016-Aug-19 21:33N 46°31' E 030°44'0 0.0
2016-Aug-19 20:33N 46°31' E 030°44'0 0.0
2016-Aug-19 19:33N 46°31' E 030°44'0 0.0
2016-Aug-19 18:33N 46°31' E 030°44'0 0.0
2016-Aug-19 17:33N 46°31' E 030°44'0 0.0
2016-Aug-19 16:33N 46°31' E 030°44'0 0.0
2016-Aug-19 15:33N 46°31' E 030°44'3 2.7
2016-Aug-19 14:33N 46°30' E 030°48'6 5.7
2016-Aug-19 13:33N 46°32' E 030°56'6 5.4
2016-Aug-19 12:30N 46°34' E 031°03'5 5.1
2016-Aug-19 11:32N 46°35' E 031°11'24 4.8
2016-Aug-19 06:32N 46°35' E 031°46'4 4.5
2016-Aug-19 05:33N 46°35' E 031°52'5 4.7
2016-Aug-19 04:34N 46°33' E 031°58'4 4.2
2016-Aug-19 03:33N 46°32' E 032°04'2 2.2
2016-Aug-19 02:33N 46°30' E 032°05'0 0.0
2016-Aug-19 01:31N 46°30' E 032°05'0 0.0
2016-Aug-18 23:33N 46°30' E 032°05'0 0.2
2016-Aug-18 22:32N 46°30' E 032°05'0 0.0
2016-Aug-18 21:29N 46°30' E 032°05'0 0.0
2016-Aug-18 20:34N 46°30' E 032°05'0 0.0
2016-Aug-18 19:33N 46°30' E 032°05'0 0.0
2016-Aug-18 18:33N 46°30' E 032°05'0 0.0
2016-Aug-18 17:32N 46°30' E 032°05'0 0.0
2016-Aug-18 16:33N 46°30' E 032°05'0 0.0
2016-Aug-18 15:33N 46°30' E 032°05'3 3.1
2016-Aug-18 14:31N 46°32' E 032°02'5 5.2
2016-Aug-18 13:33N 46°34' E 031°55'6 5.3
2016-Aug-18 12:28N 46°35' E 031°47'24 4.8
2016-Aug-18 07:25N 46°35' E 031°12'5 5.4
2016-Aug-18 06:30N 46°35' E 031°05'5 5.5
2016-Aug-18 05:33N 46°33' E 030°57'5 5.0
2016-Aug-18 04:33N 46°31' E 030°51'4 4.1
2016-Aug-18 03:33N 46°31' E 030°45'0 0.3
2016-Aug-18 02:34N 46°31' E 030°44'0 0.0
2016-Aug-18 01:34N 46°31' E 030°44'0 0.0
2016-Aug-18 00:34N 46°31' E 030°44'0 0.0
2016-Aug-17 23:33N 46°31' E 030°44'0 0.0
2016-Aug-17 22:33N 46°31' E 030°44'0 0.0
2016-Aug-17 21:33N 46°31' E 030°44'0 0.0
2016-Aug-17 20:33N 46°31' E 030°44'0 0.0
2016-Aug-17 19:33N 46°31' E 030°44'0 0.0
2016-Aug-17 18:33N 46°31' E 030°44'0 0.0
2016-Aug-17 17:33N 46°31' E 030°44'0 0.0
2016-Aug-17 16:33N 46°31' E 030°44'0 0.0
2016-Aug-17 15:33N 46°31' E 030°44'0 0.0
2016-Aug-17 14:33N 46°31' E 030°44'0 0.0
2016-Aug-17 13:33N 46°31' E 030°44'0 0.0
2016-Aug-17 12:34N 46°31' E 030°44'0 0.0
2016-Aug-17 11:34N 46°31' E 030°44'0 0.0
2016-Aug-17 10:33N 46°31' E 030°44'0 0.0
2016-Aug-17 09:33N 46°31' E 030°44'0 0.0
2016-Aug-17 08:33N 46°31' E 030°44'0 0.0
2016-Aug-17 07:33N 46°31' E 030°44'0 0.0
2016-Aug-17 06:33N 46°31' E 030°44'0 0.0
2016-Aug-17 05:34N 46°31' E 030°44'0 0.0
2016-Aug-17 04:34N 46°31' E 030°44'0 0.0
2016-Aug-17 03:33N 46°31' E 030°44'0 0.0
2016-Aug-17 02:33N 46°31' E 030°44'0 0.0
2016-Aug-17 01:32N 46°31' E 030°44'0 0.0
2016-Aug-17 00:33N 46°31' E 030°44'0 0.0
2016-Aug-16 23:33N 46°31' E 030°44'0 0.0
2016-Aug-16 22:32N 46°31' E 030°44'0 0.0
2016-Aug-16 21:33N 46°31' E 030°44'0 0.0
2016-Aug-16 20:33N 46°31' E 030°44'0 0.0
2016-Aug-16 19:33N 46°31' E 030°44'0 0.0
2016-Aug-16 18:33N 46°31' E 030°44'0 0.0
2016-Aug-16 17:33N 46°31' E 030°44'0 0.0
2016-Aug-16 16:33N 46°31' E 030°44'0 0.0
2016-Aug-16 15:33N 46°31' E 030°44'3 3.2
2016-Aug-16 14:33N 46°31' E 030°49'46 4.6
2016-Aug-16 04:34N 46°34' E 031°56'5 4.6
2016-Aug-16 03:34N 46°32' E 032°02'3 3.3
2016-Aug-16 02:33N 46°30' E 032°05'0 0.0
2016-Aug-16 01:34N 46°30' E 032°05'0 0.0
2016-Aug-16 00:33N 46°29' E 032°05'0 0.2
2016-Aug-15 23:32N 46°30' E 032°05'0 0.0
2016-Aug-15 21:30N 46°30' E 032°05'0 0.0
2016-Aug-15 20:33N 46°30' E 032°05'0 0.0
2016-Aug-15 19:29N 46°30' E 032°05'0 0.0
2016-Aug-15 15:25N 46°30' E 032°05'4 4.1
2016-Aug-15 14:33N 46°32' E 032°01'5 5.0
2016-Aug-15 13:33N 46°34' E 031°55'5 5.1
2016-Aug-15 12:32N 46°36' E 031°47'26 4.8
2016-Aug-15 07:05N 46°35' E 031°09'4 5.9
2016-Aug-15 06:26N 46°34' E 031°03'10 5.3
2016-Aug-15 04:33N 46°31' E 030°50'4 3.9
2016-Aug-15 03:33N 46°31' E 030°44'0 0.0
2016-Aug-15 02:33N 46°31' E 030°44'0 0.0
2016-Aug-15 01:33N 46°31' E 030°44'0 0.0
2016-Aug-15 00:33N 46°31' E 030°44'0 0.0
2016-Aug-14 23:33N 46°31' E 030°44'0 0.0
2016-Aug-14 22:33N 46°31' E 030°44'0 0.0
2016-Aug-14 21:33N 46°31' E 030°44'0 0.0
2016-Aug-14 20:33N 46°31' E 030°44'0 0.0
2016-Aug-14 19:33N 46°31' E 030°44'0 0.0
2016-Aug-14 18:33N 46°31' E 030°44'0 0.0
2016-Aug-14 17:33N 46°31' E 030°44'0 0.0
2016-Aug-14 16:34N 46°31' E 030°44'0 0.0
2016-Aug-14 15:33N 46°31' E 030°44'0 0.0
2016-Aug-14 14:33N 46°31' E 030°44'0 0.0
2016-Aug-14 13:33N 46°31' E 030°44'0 0.0
2016-Aug-14 12:33N 46°31' E 030°44'0 0.0
2016-Aug-14 11:33N 46°31' E 030°44'0 0.0
2016-Aug-14 10:33N 46°31' E 030°44'0 0.0
2016-Aug-14 09:33N 46°31' E 030°44'0 0.0
2016-Aug-14 08:33N 46°31' E 030°44'0 0.0
2016-Aug-14 07:34N 46°31' E 030°44'0 0.0
2016-Aug-14 06:32N 46°31' E 030°44'0 0.0
2016-Aug-14 04:33N 46°31' E 030°44'0 0.0
2016-Aug-14 03:33N 46°31' E 030°44'0 0.0
2016-Aug-14 02:33N 46°31' E 030°44'0 0.0
2016-Aug-14 01:33N 46°31' E 030°44'0 0.0
2016-Aug-14 00:33N 46°31' E 030°44'0 0.0
2016-Aug-13 23:32N 46°31' E 030°44'0 0.0
2016-Aug-13 22:31N 46°31' E 030°44'0 0.0
2016-Aug-13 21:32N 46°31' E 030°44'0 0.0
2016-Aug-13 20:33N 46°31' E 030°44'0 0.0
2016-Aug-13 19:33N 46°31' E 030°44'0 0.0
2016-Aug-13 18:32N 46°31' E 030°44'0 0.0
2016-Aug-13 17:33N 46°31' E 030°44'0 0.0
2016-Aug-13 16:33N 46°31' E 030°44'0 0.0
2016-Aug-13 15:33N 46°31' E 030°44'0 0.0
2016-Aug-13 14:33N 46°31' E 030°44'0 0.0
2016-Aug-13 13:32N 46°31' E 030°44'0 0.0
2016-Aug-13 12:32N 46°31' E 030°44'0 0.0
2016-Aug-13 11:33N 46°31' E 030°44'0 0.0
2016-Aug-13 10:33N 46°31' E 030°44'0 0.0
2016-Aug-13 09:33N 46°31' E 030°44'0 0.0
2016-Aug-13 08:33N 46°31' E 030°44'0 0.0
2016-Aug-13 07:33N 46°31' E 030°44'0 0.0
2016-Aug-13 06:33N 46°31' E 030°44'0 0.0
2016-Aug-13 05:33N 46°31' E 030°44'0 0.0
2016-Aug-13 04:33N 46°31' E 030°44'0 0.0
2016-Aug-13 03:33N 46°31' E 030°44'  

Dump ship's entire track history